EW9273 Weather Reports


time (UTC)temp
F
wind
direction
speed
knots
gust
knots
rain 1hr
in
rain 24hr
in
rain mn
in
humidity
%
barometer
mb
20220627215003 79 83 7.8 22.6 0.00 0.00 0.00 67 1015.5
20220627214503 82 98 12.2 22.6 0.00 0.00 0.00 62 1015.5
20220627214002 85 26 9.6 17.4 0.00 0.00 0.00 57 1015.2
20220627213502 87 60 6.1 12.2 0.00 0.00 0.00 53 1014.9
20220627213003 88 5 4.3 10.4 0.00 0.00 0.00 52 1014.6
20220627212503 88 22 6.1 12.2 0.00 0.00 0.00 50 1014.5
20220627212003 88 337 7.0 13.9 0.00 0.00 0.00 49 1014.7
20220627211502 88 51 7.0 14.8 0.00 0.00 0.00 47 1014.7
20220627211003 88 36 7.0 17.4 0.00 0.00 0.00 48 1014.9
20220627210503 88 32 9.6 17.4 0.00 0.00 0.00 50 1014.9
20220627210001 88 355 8.7 15.6 0.00 0.00 0.00 50 1014.9
20220627205501 88 13 7.0 24.3 0.00 0.00 0.00 51 1014.9
20220627205001 88 57 9.6 24.3 0.00 0.00 0.00 52 1014.7
20220627204502 88 327 5.2 18.2 0.00 0.00 0.00 53 1014.8
20220627204003 88 20 10.4 19.1 0.00 0.00 0.00 50 1014.9
20220627203503 89 80 11.3 19.1 0.00 0.00 0.00 48 1015.1
20220627203001 91 5 10.4 20.0 0.00 0.00 0.00 47 1015.2
20220627202502 91 14 8.7 20.0 0.00 0.00 0.00 47 1015.0
20220627202003 90 84 7.0 18.2 0.00 0.00 0.00 49 1014.9
20220627201612 90 17 8.7 18.2 0.00 0.00 0.00 49 1014.9
20220627201100 91 55 7.8 17.4 0.00 0.00 0.00 47 1014.9
20220627200105 95 22 7.8 15.6 0.00 0.00 0.00 41 1014.9
20220627195600 99 12 8.7 20.0 0.00 0.00 0.00 36 1014.9
20220627195059 100 76 5.2 20.0 0.00 0.00 0.00 33 1014.5
20220627194556 99 262 1.7 6.1 0.00 0.00 0.00 34 1014.5
20220627194056 99 98 3.5 10.4 0.00 0.00 0.00 34 1014.7
20220627193559 100 59 3.5 8.7 0.00 0.00 0.00 35 1014.7
20220627193054 100 57 1.7 11.3 0.00 0.00 0.00 34 1014.8
20220627192554 99 87 6.1 11.3 0.00 0.00 0.00 34 1014.8
20220627192053 100 109 3.5 13.0 0.00 0.00 0.00 34 1014.9
20220627191552 100 101 3.5 7.8 0.00 0.00 0.00 34 1014.9
20220627191051 100 72 1.7 7.0 0.00 0.00 0.00 34 1015.1
20220627190549 100 55 0.9 6.1 0.00 0.00 0.00 34 1015.2
20220627190048 100 71 0.9 7.8 0.00 0.00 0.00 34 1015.4
20220627185547 99 170 2.6 7.8 0.00 0.00 0.00 34 1015.4
20220627185046 98 351 0.9 8.7 0.00 0.00 0.00 34 1015.6
20220627184546 99 93 2.6 8.7 0.00 0.00 0.00 34 1015.7
20220627184044 98 199 1.7 8.7 0.00 0.00 0.00 34 1015.8
20220627183543 99 91 3.5 8.7 0.00 0.00 0.00 33 1015.8
20220627183043 98 34 2.6 7.8 0.00 0.00 0.00 33 1016.0
20220627182541 96 51 2.6 7.0 0.00 0.00 0.00 35 1016.1
20220627182042 97 70 2.6 7.8 0.00 0.00 0.00 35 1016.2
20220627181540 97 100 3.5 8.7 0.00 0.00 0.00 35 1016.2
20220627181038 97 313 1.7 8.7 0.00 0.00 0.00 35 1016.3
20220627180539 97 58 3.5 7.8 0.00 0.00 0.00 34 1016.5
20220627180037 98 5 1.7 8.7 0.00 0.00 0.00 35 1016.4
20220627175538 97 67 2.6 8.7 0.00 0.00 0.00 35 1016.6
20220627175035 97 355 2.6 8.7 0.00 0.00 0.00 35 1016.7
20220627174535 97 45 3.5 7.8 0.00 0.00 0.00 35 1016.7
20220627174033 96 188 2.6 10.4 0.00 0.00 0.00 35 1016.9
20220627173537 97 76 3.5 10.4 0.00 0.00 0.00 35 1016.9
20220627173035 96 145 2.6 9.6 0.00 0.00 0.00 36 1017.0
20220627172531 96 329 1.7 8.7 0.00 0.00 0.00 36 1016.9
20220627172031 96 119 3.5 8.7 0.00 0.00 0.00 35 1017.0
20220627171531 96 190 1.7 5.2 0.00 0.00 0.00 37 1017.0
20220627171031 96 84 1.7 7.8 0.00 0.00 0.00 37 1017.0
20220627170528 96 30 2.6 7.8 0.00 0.00 0.00 37 1017.1
20220627170028 96 100 1.7 5.2 0.00 0.00 0.00 36 1017.0
20220627165530 96 177 0.9 4.3 0.00 0.00 0.00 37 1017.1
20220627165025 95 119 0.9 7.0 0.00 0.00 0.00 38 1017.2
20220627164532 94 202 0.9 7.0 0.00 0.00 0.00 37 1017.2
20220627164025 95 22 2.6 5.2 0.00 0.00 0.00 37 1017.3
20220627163523 95 34 1.7 5.2 0.00 0.00 0.00 36 1017.2
20220627163023 95 33 0.9 5.2 0.00 0.00 0.00 36 1017.2
20220627162525 94 22 0.9 7.8 0.00 0.00 0.00 37 1017.3
20220627162021 94 5 2.6 7.8 0.00 0.00 0.00 36 1017.3
20220627161520 94 81 1.7 6.1 0.00 0.00 0.00 36 1017.3
20220627161017 93 196 0.9 6.1 0.00 0.00 0.00 38 1017.3
20220627160516 93 360 1.7 8.7 0.00 0.00 0.00 38 1017.3
20220627160016 92 332 2.6 8.7 0.00 0.00 0.00 42 1017.3
20220627155516 92 10 1.7 5.2 0.00 0.00 0.00 43 1017.4
20220627155013 92 35 2.6 5.2 0.00 0.00 0.00 45 1017.4
20220627154516 92 71 0.9 7.8 0.00 0.00 0.00 45 1017.4
20220627154010 91 355 1.7 7.8 0.00 0.00 0.00 45 1017.5
20220627153511 91 346 2.6 7.8 0.00 0.00 0.00 46 1017.5
20220627153009 91 26 1.7 7.0 0.00 0.00 0.00 48 1017.6
20220627152508 90 281 2.6 7.0 0.00 0.00 0.00 48 1017.6
20220627152006 89 69 1.7 4.3 0.00 0.00 0.00 51 1017.6
20220627151506 88 229 1.7 3.5 0.00 0.00 0.00 52 1017.6
20220627151003 88 314 0.9 6.1 0.00 0.00 0.00 54 1017.7
20220627150501 88 259 1.7 6.1 0.00 0.00 0.00 54 1017.7
20220627150100 87 351 1.7 5.2 0.00 0.00 0.00 55 1017.7
20220627145559 86 281 0.9 3.5 0.00 0.00 0.00 57 1017.9
20220627145058 86 309 0.9 4.3 0.00 0.00 0.00 58 1017.8
20220627144558 85 14 0.0 3.5 0.00 0.00 0.00 59 1017.9
20220627144058 85 240 1.7 4.3 0.00 0.00 0.00 60 1017.9
20220627143557 84 274 0.0 4.3 0.00 0.00 0.00 61 1018.1
20220627143053 83 273 2.6 6.1 0.00 0.00 0.00 61 1018.1
20220627142554 83 233 2.6 6.1 0.00 0.00 0.00 63 1018.1
20220627142051 82 153 0.9 3.5 0.00 0.00 0.00 64 1018.2
20220627141550 82 246 0.9 3.5 0.00 0.00 0.00 65 1018.3
20220627141050 81 236 0.9 3.5 0.00 0.00 0.00 67 1018.3
20220627140549 80 213 0.9 2.6 0.00 0.00 0.00 68 1018.3
20220627140102 79 222 0.9 2.6 0.00 0.00 0.00 69 1018.3
20220627135549 79 179 0.0 1.7 0.00 0.00 0.00 69 1018.2
20220627135046 78 5 0.0 0.9 0.00 0.00 0.00 70 1018.2
20220627134546 78 5 0.0 1.7 0.00 0.00 0.00 70 1018.1
20220627134045 78 5 0.0 1.7 0.00 0.00 0.00 71 1018.1
20220627133545 77 338 0.0 1.7 0.00 0.00 0.00 71 1018.2
20220627133044 77 5 0.0 3.5 0.00 0.00 0.00 72 1018.0
20220627132547 77 46 1.7 4.3 0.00 0.00 0.00 73 1018.0
20220627132044 76 43 1.7 3.5 0.00 0.00 0.00 74 1018.0
20220627131543 76 79 0.9 1.7 0.00 0.00 0.00 75 1017.9
20220627131043 76 13 0.0 1.7 0.00 0.00 0.00 76 1017.8
20220627130539 76 13 0.0 2.6 0.00 0.00 0.00 76 1017.7
20220627130038 76 320 0.0 0.9 0.00 0.00 0.00 76 1017.6
20220627125539 76 313 0.0 0.9 0.00 0.00 0.00 76 1017.4
20220627125036 76 292 0.0 1.7 0.00 0.00 0.00 76 1017.4
20220627124536 76 277 0.9 1.7 0.00 0.00 0.00 76 1017.3
20220627124036 75 43 0.0 0.9 0.00 0.00 0.00 76 1017.4
20220627123536 75 43 0.0 0.9 0.00 0.00 0.00 77 1017.5
20220627123036 75 60 0.0 1.7 0.00 0.00 0.00 77 1017.5
20220627122534 75 59 0.0 1.7 0.00 0.00 0.00 77 1017.5
20220627122038 75 82 0.9 1.7 0.00 0.00 0.00 77 1017.5
20220627121534 75 101 0.0 2.6 0.00 0.00 0.00 76 1017.5
20220627121032 75 98 0.9 2.6 0.00 0.00 0.00 76 1017.5
20220627120531 75 59 0.9 3.5 0.00 0.00 0.00 76 1017.5
20220627120029 75 72 1.7 3.5 0.00 0.00 0.00 76 1017.3
20220627115529 75 240 0.0 0.0 0.00 0.00 0.00 75 1017.1
20220627115029 75 240 0.0 0.0 0.00 0.00 0.00 75 1017.2
20220627114531 76 240 0.0 0.0 0.00 0.00 0.00 75 1017.1
20220627114027 76 240 0.0 0.9 0.00 0.00 0.00 75 1017.0
20220627113530 76 240 0.0 0.9 0.00 0.00 0.00 74 1016.9
20220627113026 76 240 0.0 0.0 0.00 0.00 0.00 74 1016.9
20220627112524 76 240 0.0 0.9 0.00 0.00 0.00 74 1016.9
20220627112028 76 240 0.0 0.9 0.00 0.00 0.00 74 1016.8
20220627111533 76 240 0.0 0.9 0.00 0.00 0.00 74 1016.8
20220627111024 76 240 0.0 1.7 0.00 0.00 0.00 74 1016.7
20220627110524 76 240 0.0 1.7 0.00 0.00 0.00 74 1016.7
20220627110028 76 229 0.0 0.9 0.00 0.00 0.00 74 1016.7
20220627105523 76 242 0.0 0.0 0.00 0.00 0.00 74 1016.6
20220627105022 76 242 0.0 0.0 0.00 0.00 0.00 74 1016.7
20220627104522 76 242 0.0 1.7 0.00 0.00 0.00 74 1016.6
20220627104023 76 242 0.0 1.7 0.00 0.00 0.00 74 1016.7
20220627103523 76 240 0.0 2.6 0.00 0.00 0.00 74 1016.6
20220627103035 76 219 0.0 2.6 0.00 0.00 0.00 74 1016.5
20220627102521 77 219 0.9 1.7 0.00 0.00 0.00 73 1016.6
20220627102020 77 247 0.0 0.9 0.00 0.00 0.00 73 1016.6
20220627101524 77 247 0.0 0.9 0.00 0.00 0.00 73 1016.6
20220627101020 77 247 0.0 0.9 0.00 0.00 0.00 73 1016.6
20220627100520 77 246 0.0 1.7 0.00 0.00 0.00 73 1016.6
20220627100037 77 247 0.0 1.7 0.00 0.00 0.00 73 1016.5
20220627095518 77 246 0.9 1.7 0.00 0.00 0.00 73 1016.4
20220627095021 77 242 0.0 1.7 0.00 0.00 0.00 73 1016.4
20220627094521 77 238 0.9 1.7 0.00 0.00 0.00 73 1016.3
20220627094019 77 240 0.0 1.7 0.00 0.00 0.00 72 1016.4
20220627093517 77 240 0.0 1.7 0.00 0.00 0.00 72 1016.4
20220627093018 77 241 0.9 1.7 0.00 0.00 0.00 72 1016.3
20220627092517 77 248 0.0 1.7 0.00 0.00 0.00 72 1016.3
20220627092017 77 245 0.0 1.7 0.00 0.00 0.00 72 1016.2
20220627091517 77 264 0.0 1.7 0.00 0.00 0.00 71 1016.4
20220627091016 77 230 0.0 1.7 0.00 0.00 0.00 71 1016.2
20220627090515 78 230 0.9 1.7 0.00 0.00 0.00 71 1016.3
20220627090015 78 230 0.0 1.7 0.00 0.00 0.00 71 1016.3
20220627085514 78 230 0.0 0.9 0.00 0.00 0.00 71 1016.3
20220627085013 78 230 0.0 0.9 0.00 0.00 0.00 71 1016.4
20220627084512 78 230 0.0 0.9 0.00 0.00 0.00 70 1016.5
20220627084012 78 230 0.0 1.7 0.00 0.00 0.00 70 1016.5
20220627083512 78 230 0.0 1.7 0.00 0.00 0.00 70 1016.5
20220627083013 78 234 0.0 1.7 0.00 0.00 0.00 70 1016.5
20220627082511 79 226 0.9 2.6 0.00 0.00 0.00 70 1016.5
20220627082010 79 227 0.9 2.6 0.00 0.00 0.00 70 1016.6
20220627081511 79 211 0.9 2.6 0.00 0.00 0.00 70 1016.7
20220627081009 79 217 0.9 2.6 0.00 0.00 0.00 70 1016.7
20220627080510 79 240 1.7 4.3 0.00 0.00 0.00 70 1016.7
20220627080009 79 156 0.9 3.5 0.00 0.00 0.00 69 1016.7
20220627075509 79 234 1.7 3.5 0.00 0.00 0.00 69 1016.7
20220627075006 79 229 0.9 3.5 0.00 0.00 0.00 69 1016.8
20220627074507 79 212 0.9 2.6 0.00 0.00 0.00 68 1016.8
20220627074006 79 196 0.9 2.6 0.00 0.00 0.00 68 1016.8
20220627073506 80 232 0.9 4.3 0.00 0.00 0.00 68 1016.8
20220627073007 80 192 0.9 4.3 0.00 0.00 0.00 68 1016.8
20220627072506 80 187 0.9 4.3 0.00 0.00 0.00 67 1016.9
20220627072004 80 158 0.9 3.5 0.00 0.00 0.00 67 1017.0
20220627071506 80 231 0.9 3.5 0.00 0.00 0.00 66 1016.9
20220627071002 80 182 0.9 3.5 0.00 0.00 0.00 65 1017.0
20220627070502 80 199 0.0 3.5 0.00 0.00 0.00 65 1017.0
20220627070002 80 212 0.9 3.5 0.00 0.00 0.00 64 1016.9
20220627065504 80 211 0.9 2.6 0.00 0.00 0.00 62 1017.0
20220627065104 80 218 0.9 3.5 0.00 0.00 0.00 62 1017.1
20220627064601 80 232 1.7 3.5 0.00 0.00 0.00 61 1017.2
20220627064100 80 232 0.0 1.7 0.00 0.00 0.00 59 1017.3
20220627063559 81 205 0.0 0.9 0.00 0.00 0.00 59 1017.3
20220627063059 81 205 0.0 0.9 0.00 0.00 0.00 58 1017.4
20220627062558 81 205 0.0 0.9 0.00 0.00 0.00 58 1017.3
20220627062057 81 205 0.0 0.9 0.00 0.00 0.00 57 1017.3
20220627061557 81 205 0.0 1.7 0.00 0.00 0.00 57 1017.2
20220627061056 82 205 0.0 1.7 0.00 0.00 0.00 57 1017.1
20220627060554 82 205 0.0 1.7 0.00 0.00 0.00 57 1017.1
20220627060054 82 205 0.0 1.7 0.00 0.00 0.00 56 1017.1
20220627055553 82 205 0.0 1.7 0.00 0.00 0.00 56 1017.1
20220627055053 82 205 0.0 1.7 0.00 0.00 0.00 56 1017.1
20220627054555 82 222 0.0 1.7 0.00 0.00 0.00 55 1017.1
20220627054051 82 222 0.0 1.7 0.00 0.00 0.00 55 1017.1
20220627053550 83 222 0.0 1.7 0.00 0.00 0.00 54 1017.0
20220627053049 83 222 0.0 1.7 0.00 0.00 0.00 54 1017.0
20220627052548 83 209 0.0 2.6 0.00 0.00 0.00 54 1016.9
20220627052047 83 223 0.0 2.6 0.00 0.00 0.00 53 1016.9
20220627051546 83 168 0.9 3.5 0.00 0.00 0.00 53 1016.8
20220627051045 84 180 1.7 4.3 0.00 0.00 0.00 53 1016.7
20220627050545 84 183 0.9 3.5 0.00 0.00 0.00 53 1016.6
20220627050043 84 165 0.9 3.5 0.00 0.00 0.00 53 1016.6
20220627045543 84 173 0.9 4.3 0.00 0.00 0.00 52 1016.6
20220627045046 84 159 1.7 4.3 0.00 0.00 0.00 52 1016.5
20220627044543 84 207 0.0 2.6 0.00 0.00 0.00 52 1016.5
20220627044043 84 188 0.9 2.6 0.00 0.00 0.00 52 1016.5
20220627043543 85 185 0.9 4.3 0.00 0.00 0.00 51 1016.5
20220627043043 85 176 0.9 4.3 0.00 0.00 0.00 51 1016.4
20220627042543 85 160 0.9 5.2 0.00 0.00 0.00 51 1016.3
20220627042042 85 171 0.9 5.2 0.00 0.00 0.00 51 1016.3
20220627041542 85 188 1.7 7.0 0.00 0.00 0.00 51 1016.1
20220627041042 85 184 1.7 7.0 0.00 0.00 0.00 51 1016.1
20220627040542 86 117 1.7 6.1 0.00 0.00 0.00 53 1016.0
20220627040041 86 155 3.5 6.1 0.00 0.00 0.00 53 1015.8
20220627035544 86 159 3.5 6.1 0.00 0.00 0.00 53 1015.8
20220627035041 86 203 1.7 6.1 0.00 0.00 0.00 54 1015.8
20220627034540 86 198 0.9 5.2 0.00 0.00 0.00 54 1015.7
20220627034044 87 152 1.7 7.0 0.00 0.00 0.00 54 1015.6
20220627033540 87 165 1.7 7.0 0.00 0.00 0.00 54 1015.4
20220627033042 87 192 2.6 8.7 0.00 0.00 0.00 54 1015.4
20220627032540 87 194 2.6 8.7 0.00 0.00 0.00 55 1015.3
20220627032041 87 150 2.6 9.6 0.00 0.00 0.00 55 1015.2
20220627031540 87 184 2.6 9.6 0.00 0.00 0.00 56 1015.1
20220627031040 87 161 1.7 4.3 0.00 0.00 0.00 57 1015.0
20220627030541 87 188 1.7 4.3 0.00 0.00 0.00 57 1014.9
20220627030039 88 213 1.7 5.2 0.00 0.00 0.00 57 1014.9
20220627025539 88 174 1.7 7.8 0.00 0.00 0.00 57 1014.9
20220627025042 88 157 3.5 7.8 0.00 0.00 0.00 57 1014.8
20220627024543 88 128 3.5 7.8 0.00 0.00 0.00 57 1014.7
20220627024038 88 167 1.7 6.1 0.00 0.00 0.00 57 1014.6
20220627023540 88 182 1.7 8.7 0.00 0.00 0.00 57 1014.4
20220627023038 88 149 2.6 7.0 0.00 0.00 0.00 56 1014.4
20220627022539 89 102 2.6 7.8 0.00 0.00 0.00 56 1014.3
20220627022040 89 172 2.6 7.8 0.00 0.00 0.00 56 1014.2
20220627021538 89 168 4.3 8.7 0.00 0.00 0.00 55 1014.2
20220627021039 89 164 2.6 8.7 0.00 0.00 0.00 54 1014.1
20220627020538 89 159 3.5 9.6 0.00 0.00 0.00 54 1014.1
20220627020037 90 136 4.3 9.6 0.00 0.00 0.00 53 1014.0
20220627015538 90 148 3.5 9.6 0.00 0.00 0.00 52 1014.0
20220627015037 91 186 1.7 8.7 0.00 0.00 0.00 51 1013.9
20220627014536 92 229 3.5 8.7 0.00 0.00 0.00 48 1013.8
20220627014036 93 184 2.6 5.2 0.00 0.00 0.00 35 1013.7
20220627013536 94 124 1.7 5.2 0.00 0.00 0.00 34 1013.3
20220627013037 94 66 1.7 4.3 0.00 0.00 0.00 34 1013.3
20220627012538 94 95 0.9 5.2 0.00 0.00 0.00 34 1013.2
20220627012036 95 115 1.7 7.0 0.00 0.00 0.00 33 1013.2
20220627011539 95 96 1.7 7.0 0.00 0.00 0.00 33 1013.2
20220627011038 95 88 2.6 6.1 0.00 0.00 0.00 33 1013.1
20220627010536 95 91 1.7 7.8 0.00 0.00 0.00 33 1013.2
20220627010036 96 95 3.5 7.8 0.00 0.00 0.00 33 1013.2
20220627005534 96 107 3.5 8.7 0.00 0.00 0.00 33 1013.1
20220627005034 96 105 3.5 8.7 0.00 0.00 0.00 32 1013.2
20220627004533 96 120 3.5 6.1 0.00 0.00 0.00 32 1013.2
20220627004036 96 75 0.9 9.6 0.00 0.00 0.00 32 1013.2
20220627003534 96 92 4.3 9.6 0.00 0.00 0.00 32 1013.1
20220627003045 97 90 4.3 9.6 0.00 0.00 0.00 31 1013.0
20220627002533 97 71 3.5 9.6 0.00 0.00 0.00 31 1013.0
20220627002032 97 65 4.3 9.6 0.00 0.00 0.00 31 1012.9
20220627001533 97 59 1.7 9.6 0.00 0.00 0.00 31 1012.9
20220627001033 97 84 1.7 7.8 0.00 0.00 0.00 31 1012.9
20220627000601 97 73 4.3 7.8 0.00 0.00 0.00 31 1012.8
20220627000031 97 101 1.7 7.8 0.00 0.00 0.00 31 1012.9
20220626235531 98 47 3.5 8.7 0.00 0.00 0.00 31 1012.9
20220626235032 98 254 1.7 8.7 0.00 0.00 0.00 31 1012.9
20220626234531 97 197 2.6 7.8 0.00 0.00 0.00 33 1012.9
20220626234030 97 111 1.7 8.7 0.00 0.00 0.00 33 1012.9
20220626233533 97 82 4.3 8.7 0.00 0.00 0.00 32 1012.8
20220626233029 97 71 2.6 5.2 0.00 0.00 0.00 32 1012.9
20220626232530 97 200 1.7 7.0 0.00 0.00 0.00 33 1012.9
20220626232029 97 70 3.5 7.0 0.00 0.00 0.00 33 1012.8
20220626231530 96 78 1.7 8.7 0.00 0.00 0.00 33 1012.9
20220626231028 96 55 4.3 9.6 0.00 0.00 0.00 33 1012.9
20220626230527 97 76 3.5 9.6 0.00 0.00 0.00 33 1013.0
20220626230032 98 103 3.5 8.7 0.00 0.00 0.00 33 1013.0
20220626225526 98 117 0.9 7.8 0.00 0.00 0.00 33 1013.1
20220626225028 98 196 2.6 11.3 0.00 0.00 0.00 32 1013.1
20220626224532 98 160 1.7 8.7 0.00 0.00 0.00 33 1013.1
20220626224026 97 17 2.6 8.7 0.00 0.00 0.00 34 1013.2
20220626223525 97 126 5.2 9.6 0.00 0.00 0.00 33 1013.2
20220626223028 97 32 3.5 9.6 0.00 0.00 0.00 33 1013.3
20220626222528 98 92 3.5 9.6 0.00 0.00 0.00 33 1013.3
20220626222023 99 124 4.3 7.8 0.00 0.00 0.00 32 1013.4
20220626221522 99 65 1.7 8.7 0.00 0.00 0.00 32 1013.4
20220626221021 98 151 2.6 8.7 0.00 0.00 0.00 33 1013.5
20220626220520 98 83 2.6 7.0 0.00 0.00 0.00 33 1013.5
20220626220019 98 32 1.7 10.4 0.00 0.00 0.00 33 1013.6
20220626215519 97 105 5.2 10.4 0.00 0.00 0.00 33 1013.7